createdAt,value
2022-12-31T00:00:48.731Z,1001.77
2022-12-31T00:01:48.998Z,1001.81
2022-12-31T00:02:49.335Z,1001.78
2022-12-31T00:03:50.465Z,1001.83
2022-12-31T00:04:49.783Z,1001.74
2022-12-31T00:05:50.029Z,1001.68
2022-12-31T00:06:50.240Z,1001.76
2022-12-31T00:07:50.581Z,1001.72
2022-12-31T00:08:51.125Z,1001.83
2022-12-31T00:09:51.178Z,1001.93
2022-12-31T00:10:51.550Z,1001.83
2022-12-31T00:11:51.781Z,1001.90
2022-12-31T00:12:52.011Z,1001.85
2022-12-31T00:13:52.371Z,1001.84
2022-12-31T00:14:52.636Z,1001.90
2022-12-31T00:15:52.864Z,1001.94
2022-12-31T00:16:53.150Z,1001.98
2022-12-31T00:17:53.379Z,1002.11
2022-12-31T00:18:53.624Z,1001.90
2022-12-31T00:19:53.844Z,1001.86
2022-12-31T00:20:54.092Z,1001.83
2022-12-31T00:21:54.303Z,1002.07
2022-12-31T00:22:54.661Z,1002.09
2022-12-31T00:23:55.012Z,1002.15
2022-12-31T00:24:55.283Z,1002.08
2022-12-31T00:25:55.537Z,1002.03
2022-12-31T00:26:55.756Z,1001.96
2022-12-31T00:27:56.112Z,1002.15
2022-12-31T00:28:56.360Z,1002.16
2022-12-31T00:30:02.453Z,1002.11
2022-12-31T00:30:57.865Z,1002.11
2022-12-31T00:31:57.177Z,1002.15
2022-12-31T00:32:57.409Z,1002.24
2022-12-31T00:33:57.646Z,1002.19
2022-12-31T00:34:57.903Z,1002.23
2022-12-31T00:35:58.134Z,1002.15
2022-12-31T00:36:58.358Z,1002.17
2022-12-31T00:37:58.593Z,1002.15
2022-12-31T00:38:58.824Z,1002.10
2022-12-31T00:39:59.077Z,1002.15
2022-12-31T00:40:59.341Z,1002.18
2022-12-31T00:41:59.578Z,1002.20
2022-12-31T00:42:59.818Z,1002.14
2022-12-31T00:44:00.117Z,1002.15
2022-12-31T00:45:00.379Z,1002.19
2022-12-31T00:46:00.668Z,1002.18
2022-12-31T00:47:00.905Z,1002.15
2022-12-31T00:48:01.149Z,1002.14
2022-12-31T00:49:01.464Z,1002.14
2022-12-31T00:50:01.708Z,1002.12
2022-12-31T00:51:01.974Z,1002.13
2022-12-31T00:52:02.230Z,1002.18
2022-12-31T00:53:02.479Z,1002.22
2022-12-31T00:54:02.730Z,1002.15
2022-12-31T00:55:02.980Z,1002.13
2022-12-31T00:56:03.267Z,1002.06
2022-12-31T00:57:03.526Z,1002.22
2022-12-31T00:58:03.782Z,1002.15
2022-12-31T00:59:04.050Z,1002.21
2022-12-31T01:00:04.301Z,1002.07
2022-12-31T01:01:04.712Z,1002.10
2022-12-31T01:02:04.920Z,1002.17
2022-12-31T01:03:05.266Z,1002.07
2022-12-31T01:04:05.318Z,1002.15
2022-12-31T01:05:05.574Z,1002.21
2022-12-31T01:06:05.873Z,1002.27
2022-12-31T01:07:06.141Z,1002.24
2022-12-31T01:08:06.398Z,1002.29
2022-12-31T01:09:06.721Z,1002.39
2022-12-31T01:10:06.983Z,1002.38
2022-12-31T01:11:07.285Z,1002.28
2022-12-31T01:12:07.563Z,1002.43
2022-12-31T01:13:07.858Z,1002.33
2022-12-31T01:14:08.121Z,1002.25
2022-12-31T01:15:08.413Z,1002.28
2022-12-31T01:16:08.766Z,1002.38
2022-12-31T01:17:08.964Z,1002.37
2022-12-31T01:18:09.255Z,1002.37
2022-12-31T01:19:09.584Z,1002.31
2022-12-31T01:20:09.889Z,1002.41
2022-12-31T01:21:10.165Z,1002.35
2022-12-31T01:22:10.472Z,1002.50
2022-12-31T01:23:10.716Z,1002.50
2022-12-31T01:24:10.999Z,1002.54
2022-12-31T01:25:11.298Z,1002.49
2022-12-31T01:26:11.624Z,1002.49
2022-12-31T01:27:11.898Z,1002.55
2022-12-31T01:28:12.257Z,1002.53
2022-12-31T01:29:12.421Z,1002.49
2022-12-31T01:30:12.724Z,1002.45
2022-12-31T01:31:13.123Z,1002.48
2022-12-31T01:32:13.231Z,1002.52
2022-12-31T01:33:13.540Z,1002.42
2022-12-31T01:34:13.853Z,1002.37
2022-12-31T01:35:14.108Z,1002.29
2022-12-31T01:36:14.434Z,1002.31
2022-12-31T01:37:14.748Z,1002.44
2022-12-31T01:38:15.069Z,1002.51
2022-12-31T01:39:15.361Z,1002.48
2022-12-31T01:40:15.629Z,1002.48
2022-12-31T01:41:15.911Z,1002.48
2022-12-31T01:42:16.192Z,1002.53
2022-12-31T01:43:16.493Z,1002.55
2022-12-31T01:44:16.771Z,1002.50
2022-12-31T01:45:17.044Z,1002.55
2022-12-31T01:46:17.417Z,1002.55
2022-12-31T01:47:17.609Z,1002.59
2022-12-31T01:48:17.884Z,1002.62
2022-12-31T01:49:18.182Z,1002.68
2022-12-31T01:50:18.464Z,1002.72
2022-12-31T01:51:18.756Z,1002.76
2022-12-31T01:52:19.027Z,1002.67
2022-12-31T01:53:19.296Z,1002.66
2022-12-31T01:54:19.571Z,1002.63
2022-12-31T01:55:19.848Z,1002.64
2022-12-31T01:56:20.133Z,1002.67
2022-12-31T01:57:20.412Z,1002.69
2022-12-31T01:58:20.695Z,1002.58
2022-12-31T01:59:20.962Z,1002.68
2022-12-31T02:00:21.273Z,1002.70
2022-12-31T02:01:21.685Z,1002.63
2022-12-31T02:02:21.925Z,1002.61
2022-12-31T02:03:22.102Z,1002.52
2022-12-31T02:04:22.382Z,1002.50
2022-12-31T02:05:22.634Z,1002.54
2022-12-31T02:06:22.912Z,1002.59
2022-12-31T02:07:23.186Z,1002.62
2022-12-31T02:08:23.433Z,1002.66
2022-12-31T02:09:23.707Z,1002.71
2022-12-31T02:10:23.990Z,1002.70
2022-12-31T02:11:24.274Z,1002.65
2022-12-31T02:12:24.527Z,1002.69
2022-12-31T02:13:24.803Z,1002.72
2022-12-31T02:14:25.085Z,1002.78
2022-12-31T02:15:25.357Z,1002.77
2022-12-31T02:16:25.708Z,1002.80
2022-12-31T02:17:25.887Z,1002.79
2022-12-31T02:18:26.149Z,1002.80
2022-12-31T02:19:26.416Z,1002.84
2022-12-31T02:20:26.732Z,1002.82
2022-12-31T02:21:27.017Z,1002.80
2022-12-31T02:22:27.288Z,1002.85
2022-12-31T02:23:27.548Z,1002.83
2022-12-31T02:24:27.869Z,1002.92
2022-12-31T02:25:28.172Z,1002.82
2022-12-31T02:26:28.479Z,1002.81
2022-12-31T02:27:28.767Z,1002.91
2022-12-31T02:28:29.043Z,1002.89
2022-12-31T02:29:29.352Z,1002.91
2022-12-31T02:30:29.711Z,1002.97
2022-12-31T02:31:30.040Z,1002.94
2022-12-31T02:32:30.206Z,1002.85
2022-12-31T02:33:30.598Z,1002.87
2022-12-31T02:34:30.805Z,1002.80
2022-12-31T02:35:31.135Z,1002.91
2022-12-31T02:36:31.561Z,1002.84
2022-12-31T02:37:31.734Z,1002.93
2022-12-31T02:38:32.077Z,1002.93
2022-12-31T02:39:32.395Z,1002.83
2022-12-31T02:40:32.684Z,1002.87
2022-12-31T02:41:33.079Z,1002.82
2022-12-31T02:42:33.314Z,1002.85
2022-12-31T02:43:33.664Z,1002.82
2022-12-31T02:44:34.079Z,1002.73
2022-12-31T02:45:34.272Z,1002.77
2022-12-31T02:46:34.692Z,1002.82
2022-12-31T02:47:34.887Z,1002.72
2022-12-31T02:48:35.232Z,1002.73
2022-12-31T02:49:35.632Z,1002.78
2022-12-31T02:50:35.845Z,1002.89
2022-12-31T02:51:36.347Z,1002.84
2022-12-31T02:52:36.538Z,1002.76
2022-12-31T02:53:36.837Z,1002.81
2022-12-31T02:54:37.115Z,1002.73
2022-12-31T02:55:37.379Z,1002.66
2022-12-31T02:56:37.692Z,1002.62
2022-12-31T02:57:37.969Z,1002.57
2022-12-31T02:58:38.234Z,1002.52
2022-12-31T02:59:38.450Z,1002.42
2022-12-31T03:00:38.821Z,1002.43
2022-12-31T03:01:39.227Z,1002.52
2022-12-31T03:02:39.365Z,1002.53
2022-12-31T03:03:39.600Z,1002.59
2022-12-31T03:04:39.873Z,1002.66
2022-12-31T03:05:40.091Z,1002.66
2022-12-31T03:06:40.442Z,1002.69
2022-12-31T03:07:40.656Z,1002.78
2022-12-31T03:08:40.999Z,1002.80
2022-12-31T03:09:41.324Z,1002.74
2022-12-31T03:10:41.641Z,1002.77
2022-12-31T03:11:41.999Z,1002.73
2022-12-31T03:12:42.238Z,1002.73
2022-12-31T03:13:42.442Z,1002.68
2022-12-31T03:14:42.764Z,1002.65
2022-12-31T03:15:43.085Z,1002.71
2022-12-31T03:16:43.472Z,1002.71
2022-12-31T03:17:43.673Z,1002.70
2022-12-31T03:18:44.010Z,1002.61
2022-12-31T03:19:44.355Z,1002.67
2022-12-31T03:20:44.729Z,1002.65
2022-12-31T03:21:44.988Z,1002.70
2022-12-31T03:22:45.193Z,1002.65
2022-12-31T03:23:45.535Z,1002.62
2022-12-31T03:24:45.913Z,1002.63
2022-12-31T03:25:46.194Z,1002.59
2022-12-31T03:26:46.424Z,1002.67
2022-12-31T03:27:46.633Z,1002.64
2022-12-31T03:28:46.978Z,1002.66
2022-12-31T03:29:47.314Z,1002.54
2022-12-31T03:30:47.649Z,1002.60
2022-12-31T03:31:48.060Z,1002.51
2022-12-31T03:32:48.292Z,1002.53
2022-12-31T03:33:48.617Z,1002.57
2022-12-31T03:34:48.966Z,1002.55
2022-12-31T03:35:49.297Z,1002.63
2022-12-31T03:36:49.667Z,1002.59
2022-12-31T03:37:49.885Z,1002.64
2022-12-31T03:38:52.868Z,1002.62
2022-12-31T03:39:50.537Z,1002.64
2022-12-31T03:40:50.908Z,1002.63
2022-12-31T03:41:51.153Z,1002.62
2022-12-31T03:42:51.385Z,1002.70
2022-12-31T03:43:51.757Z,1002.66
2022-12-31T03:44:51.970Z,1002.64
2022-12-31T03:45:52.350Z,1002.63
2022-12-31T03:46:52.701Z,1002.62
2022-12-31T03:47:52.920Z,1002.62
2022-12-31T03:48:53.264Z,1002.59
2022-12-31T03:49:53.575Z,1002.59
2022-12-31T03:50:53.912Z,1002.59
2022-12-31T03:51:54.253Z,1002.59
2022-12-31T03:52:54.620Z,1002.61
2022-12-31T03:53:54.822Z,1002.59
2022-12-31T03:54:55.203Z,1002.59
2022-12-31T03:55:55.421Z,1002.63
2022-12-31T03:57:00.047Z,1002.61
2022-12-31T03:57:56.015Z,1002.65
2022-12-31T03:58:56.270Z,1002.61
2022-12-31T03:59:56.616Z,1002.61
2022-12-31T04:00:57.017Z,1002.63
2022-12-31T04:01:57.226Z,1002.65
2022-12-31T04:02:57.500Z,1002.69
2022-12-31T04:03:57.744Z,1002.61
2022-12-31T04:04:58.079Z,1002.65
2022-12-31T04:05:58.395Z,1002.69
2022-12-31T04:06:58.734Z,1002.65
2022-12-31T04:07:59.071Z,1002.66
2022-12-31T04:08:59.405Z,1002.68
2022-12-31T04:09:59.761Z,1002.67
2022-12-31T04:10:59.958Z,1002.68
2022-12-31T04:12:00.297Z,1002.66
2022-12-31T04:13:00.649Z,1002.68
2022-12-31T04:14:00.987Z,1002.67
2022-12-31T04:15:01.307Z,1002.71
2022-12-31T04:16:01.658Z,1002.70
2022-12-31T04:17:01.917Z,1002.77
2022-12-31T04:18:02.117Z,1002.68
2022-12-31T04:19:02.498Z,1002.78
2022-12-31T04:20:02.717Z,1002.80
2022-12-31T04:21:03.051Z,1002.74
2022-12-31T04:22:03.401Z,1002.78
2022-12-31T04:23:03.627Z,1002.71
2022-12-31T04:24:03.966Z,1002.73
2022-12-31T04:25:04.330Z,1002.73
2022-12-31T04:26:04.541Z,1002.64
2022-12-31T04:27:07.817Z,1002.73
2022-12-31T04:28:05.141Z,1002.71
2022-12-31T04:29:05.524Z,1002.69
2022-12-31T04:30:05.771Z,1002.74
2022-12-31T04:31:06.078Z,1002.72
2022-12-31T04:32:06.424Z,1002.73
2022-12-31T04:33:06.652Z,1002.69
2022-12-31T04:34:06.872Z,1002.72
2022-12-31T04:35:07.105Z,1002.70
2022-12-31T04:36:07.424Z,1002.63
2022-12-31T04:37:07.804Z,1002.71
2022-12-31T04:38:08.030Z,1002.73
2022-12-31T04:39:08.390Z,1002.70
2022-12-31T04:40:08.760Z,1002.72
2022-12-31T04:41:08.895Z,1002.78
2022-12-31T04:42:09.132Z,1002.82
2022-12-31T04:43:09.359Z,1002.76
2022-12-31T04:44:09.694Z,1002.73
2022-12-31T04:45:10.072Z,1002.77
2022-12-31T04:46:10.351Z,1002.72
2022-12-31T04:47:10.588Z,1002.67
2022-12-31T04:48:10.936Z,1002.70
2022-12-31T04:49:11.180Z,1002.70
2022-12-31T04:50:11.399Z,1002.65
2022-12-31T04:51:11.689Z,1002.64
2022-12-31T04:52:11.971Z,1002.60
2022-12-31T04:53:12.201Z,1002.59
2022-12-31T04:54:12.425Z,1002.59
2022-12-31T04:55:12.770Z,1002.54
2022-12-31T04:56:12.992Z,1002.59
2022-12-31T04:57:13.389Z,1002.54
2022-12-31T04:58:13.623Z,1002.59
2022-12-31T04:59:13.888Z,1002.50
2022-12-31T05:00:14.139Z,1002.55
2022-12-31T05:01:14.524Z,1002.53
2022-12-31T05:02:14.874Z,1002.53
2022-12-31T05:03:15.037Z,1002.51
2022-12-31T05:04:15.108Z,1002.54
2022-12-31T05:05:15.443Z,1002.57
2022-12-31T05:06:15.792Z,1002.52
2022-12-31T05:07:16.218Z,1002.52
2022-12-31T05:08:16.435Z,1002.51
2022-12-31T05:09:16.782Z,1002.53
2022-12-31T05:10:17.001Z,1002.54
2022-12-31T05:11:17.386Z,1002.59
2022-12-31T05:12:17.644Z,1002.64
2022-12-31T05:13:17.862Z,1002.65
2022-12-31T05:14:18.356Z,1002.65
2022-12-31T05:15:18.534Z,1002.62
2022-12-31T05:16:18.948Z,1002.63
2022-12-31T05:17:19.189Z,1002.65
2022-12-31T05:18:27.097Z,1002.63
2022-12-31T05:19:19.681Z,1002.58
2022-12-31T05:20:20.040Z,1002.60
2022-12-31T05:21:20.303Z,1002.61
2022-12-31T05:22:20.518Z,1002.59
2022-12-31T05:23:20.745Z,1002.55
2022-12-31T05:24:21.074Z,1002.55
2022-12-31T05:25:21.432Z,1002.51
2022-12-31T05:26:22.148Z,1002.45
2022-12-31T05:27:22.195Z,1002.41
2022-12-31T05:28:22.265Z,1002.37
2022-12-31T05:29:22.512Z,1002.37
2022-12-31T05:30:22.743Z,1002.41
2022-12-31T05:31:22.993Z,1002.41
2022-12-31T05:32:23.260Z,1002.33
2022-12-31T05:33:23.532Z,1002.34
2022-12-31T05:34:23.758Z,1002.38
2022-12-31T05:35:23.986Z,1002.29
2022-12-31T05:36:24.257Z,1002.30
2022-12-31T05:37:24.481Z,1002.34
2022-12-31T05:38:24.841Z,1002.34
2022-12-31T05:39:25.049Z,1002.34
2022-12-31T05:40:25.409Z,1002.33
2022-12-31T05:41:25.608Z,1002.38
2022-12-31T05:42:25.989Z,1002.38
2022-12-31T05:43:26.209Z,1002.34
2022-12-31T05:44:26.452Z,1002.34
2022-12-31T05:45:30.727Z,1002.37
2022-12-31T05:46:27.003Z,1002.39
2022-12-31T05:47:27.252Z,1002.37
2022-12-31T05:48:27.487Z,1002.43
2022-12-31T05:49:27.842Z,1002.40
2022-12-31T05:50:28.080Z,1002.41
2022-12-31T05:51:28.425Z,1002.45
2022-12-31T05:52:28.755Z,1002.45
2022-12-31T05:53:29.082Z,1002.55
2022-12-31T05:54:29.434Z,1002.52
2022-12-31T05:55:29.679Z,1002.52
2022-12-31T05:56:29.981Z,1002.59
2022-12-31T05:57:30.331Z,1002.55
2022-12-31T05:58:30.563Z,1002.53
2022-12-31T05:59:30.766Z,1002.54
2022-12-31T06:00:31.104Z,1002.50
2022-12-31T06:01:31.484Z,1002.51
2022-12-31T06:02:31.778Z,1002.55
2022-12-31T06:03:32.068Z,1002.56
2022-12-31T06:04:32.319Z,1002.56
2022-12-31T06:05:32.538Z,1002.59
2022-12-31T06:06:32.894Z,1002.56
2022-12-31T06:07:33.135Z,1002.55
2022-12-31T06:08:33.363Z,1002.60
2022-12-31T06:09:33.711Z,1002.60
2022-12-31T06:10:34.051Z,1002.60
2022-12-31T06:11:34.385Z,1002.56
2022-12-31T06:12:34.756Z,1002.54
2022-12-31T06:13:34.964Z,1002.52
2022-12-31T06:14:35.313Z,1002.52
2022-12-31T06:15:35.590Z,1002.44
2022-12-31T06:16:35.826Z,1002.41
2022-12-31T06:17:36.192Z,1002.41
2022-12-31T06:18:36.408Z,1002.42
2022-12-31T06:19:36.750Z,1002.35
2022-12-31T06:20:37.109Z,1002.43
2022-12-31T06:21:37.331Z,1002.38
2022-12-31T06:22:37.690Z,1002.38
2022-12-31T06:23:37.890Z,1002.38
2022-12-31T06:24:38.262Z,1002.49
2022-12-31T06:25:38.481Z,1002.44
2022-12-31T06:26:38.840Z,1002.40
2022-12-31T06:27:39.111Z,1002.33
2022-12-31T06:28:39.335Z,1002.42
2022-12-31T06:29:39.702Z,1002.41
2022-12-31T06:30:39.929Z,1002.31
2022-12-31T06:31:40.287Z,1002.32
2022-12-31T06:32:40.574Z,1002.32
2022-12-31T06:33:40.805Z,1002.32
2022-12-31T06:34:41.167Z,1002.32
2022-12-31T06:35:41.396Z,1002.29
2022-12-31T06:36:41.634Z,1002.29
2022-12-31T06:37:41.889Z,1002.30
2022-12-31T06:38:42.126Z,1002.32
2022-12-31T06:39:42.361Z,1002.31
2022-12-31T06:40:42.611Z,1002.35
2022-12-31T06:41:42.846Z,1002.33
2022-12-31T06:42:43.227Z,1002.25
2022-12-31T06:43:44.044Z,1002.20
2022-12-31T06:44:44.198Z,1002.21
2022-12-31T06:45:43.980Z,1002.13
2022-12-31T06:46:44.328Z,1002.17
2022-12-31T06:47:44.589Z,1002.13
2022-12-31T06:48:45.045Z,1002.03
2022-12-31T06:49:45.245Z,1002.14
2022-12-31T06:50:45.475Z,1002.13
2022-12-31T06:51:45.729Z,1002.12
2022-12-31T06:52:45.945Z,1002.14
2022-12-31T06:53:46.164Z,1002.13
2022-12-31T06:54:46.399Z,1002.16
2022-12-31T06:55:46.627Z,1002.15
2022-12-31T06:56:46.860Z,1002.19
2022-12-31T06:57:47.112Z,1002.19
2022-12-31T06:58:47.359Z,1002.18
2022-12-31T06:59:47.608Z,1002.25
2022-12-31T07:00:47.849Z,1002.19
2022-12-31T07:01:48.164Z,1002.27
2022-12-31T07:02:48.535Z,1002.23
2022-12-31T07:03:48.645Z,1002.26
2022-12-31T07:04:48.890Z,1002.32
2022-12-31T07:05:49.120Z,1002.27
2022-12-31T07:06:49.356Z,1002.23
2022-12-31T07:07:49.731Z,1002.23
2022-12-31T07:08:49.990Z,1002.17
2022-12-31T07:09:50.717Z,1002.21
2022-12-31T07:10:50.523Z,1002.19
2022-12-31T07:11:50.768Z,1002.17
2022-12-31T07:12:51.063Z,1002.13
2022-12-31T07:13:51.287Z,1002.11
2022-12-31T07:14:51.567Z,1002.14
2022-12-31T07:15:51.874Z,1002.15
2022-12-31T07:16:52.171Z,1002.15
2022-12-31T07:17:52.444Z,1002.11
2022-12-31T07:18:52.696Z,1002.11
2022-12-31T07:19:57.521Z,1002.12
2022-12-31T07:20:54.292Z,1002.12
2022-12-31T07:21:53.606Z,1002.08
2022-12-31T07:22:53.900Z,1002.03
2022-12-31T07:23:54.165Z,1002.03
2022-12-31T07:24:54.417Z,1002.05
2022-12-31T07:25:54.690Z,1002.00
2022-12-31T07:26:56.937Z,1002.01
2022-12-31T07:27:55.291Z,1002.10
2022-12-31T07:28:55.529Z,1002.09
2022-12-31T07:29:55.789Z,1002.14
2022-12-31T07:30:56.106Z,1002.17
2022-12-31T07:31:56.341Z,1002.13
2022-12-31T07:32:56.609Z,1002.14
2022-12-31T07:33:56.873Z,1002.05
2022-12-31T07:34:57.119Z,1002.06
2022-12-31T07:35:57.391Z,1002.09
2022-12-31T07:36:57.674Z,1002.09
2022-12-31T07:37:57.931Z,1002.10
2022-12-31T07:38:58.210Z,1002.12
2022-12-31T07:39:58.486Z,1002.14
2022-12-31T07:41:00.613Z,1002.14
2022-12-31T07:42:00.003Z,1002.16
2022-12-31T07:42:59.332Z,1002.10
2022-12-31T07:43:59.634Z,1002.06
2022-12-31T07:44:59.944Z,1002.09
2022-12-31T07:46:00.253Z,1002.04
2022-12-31T07:47:00.603Z,1002.07
2022-12-31T07:48:03.045Z,1002.00
2022-12-31T07:49:01.011Z,1001.97
2022-12-31T07:50:01.252Z,1001.99
2022-12-31T07:51:01.522Z,1002.04
2022-12-31T07:52:01.803Z,1002.00
2022-12-31T07:53:02.056Z,1002.06
2022-12-31T07:54:02.294Z,1002.09
2022-12-31T07:55:02.586Z,1002.05
2022-12-31T07:56:03.384Z,1002.07
2022-12-31T07:57:03.154Z,1002.08
2022-12-31T07:58:03.393Z,1002.14
2022-12-31T07:59:03.682Z,1002.05
2022-12-31T08:00:03.960Z,1002.10
2022-12-31T08:01:04.341Z,1002.08
2022-12-31T08:02:04.728Z,1002.08
2022-12-31T08:03:05.146Z,1002.15
2022-12-31T08:04:05.230Z,1002.07
2022-12-31T08:05:05.526Z,1002.07
2022-12-31T08:06:05.778Z,1002.08
2022-12-31T08:07:06.037Z,1002.05
2022-12-31T08:08:06.339Z,1002.08
2022-12-31T08:09:06.852Z,1002.13
2022-12-31T08:10:09.107Z,1002.01
2022-12-31T08:11:08.188Z,1002.02
2022-12-31T08:12:07.477Z,1002.11
2022-12-31T08:13:07.751Z,1002.21
2022-12-31T08:14:08.009Z,1002.08
2022-12-31T08:15:08.269Z,1002.04
2022-12-31T08:16:08.548Z,1002.17
2022-12-31T08:17:09.153Z,1002.31
2022-12-31T08:18:09.442Z,1002.31
2022-12-31T08:19:09.431Z,1002.28
2022-12-31T08:20:09.640Z,1002.22
2022-12-31T08:21:09.972Z,1002.08
2022-12-31T08:22:10.276Z,1002.20
2022-12-31T08:23:10.519Z,1002.23
2022-12-31T08:24:10.776Z,1002.21
2022-12-31T08:25:11.050Z,1002.19
2022-12-31T08:26:11.437Z,1002.19
2022-12-31T08:27:11.657Z,1002.05
2022-12-31T08:28:12.214Z,1001.90
2022-12-31T08:29:12.401Z,1002.12
2022-12-31T08:30:12.935Z,1002.01
2022-12-31T08:31:12.976Z,1002.02
2022-12-31T08:32:13.741Z,1001.97
2022-12-31T08:33:15.178Z,1001.79
2022-12-31T08:34:14.014Z,1001.74
2022-12-31T08:35:14.277Z,1001.78
2022-12-31T08:36:14.599Z,1001.74
2022-12-31T08:37:14.699Z,1001.76
2022-12-31T08:38:15.055Z,1001.75
2022-12-31T08:39:15.374Z,1001.79
2022-12-31T08:40:15.466Z,1001.82
2022-12-31T08:41:15.759Z,1001.90
2022-12-31T08:42:16.155Z,1001.93
2022-12-31T08:43:16.362Z,1001.95
2022-12-31T08:44:16.585Z,1001.92
2022-12-31T08:45:16.847Z,1001.98
2022-12-31T08:46:17.219Z,1002.05
2022-12-31T08:47:17.442Z,1002.02
2022-12-31T08:48:17.539Z,1001.99
2022-12-31T08:49:17.971Z,1002.03
2022-12-31T08:50:18.135Z,1002.04
2022-12-31T08:51:18.291Z,1002.11
2022-12-31T08:52:18.602Z,1002.08
2022-12-31T08:53:19.254Z,1002.03
2022-12-31T08:54:19.374Z,1001.97
2022-12-31T08:55:19.688Z,1001.97
2022-12-31T08:56:19.748Z,1001.98
2022-12-31T08:57:19.920Z,1001.97
2022-12-31T08:58:20.171Z,1002.04
2022-12-31T08:59:20.420Z,1002.02
2022-12-31T09:00:20.688Z,1002.00
2022-12-31T09:01:21.066Z,1002.03
2022-12-31T09:02:21.604Z,1001.90
2022-12-31T09:03:22.073Z,1001.93
2022-12-31T09:04:22.190Z,1002.00
2022-12-31T09:05:22.348Z,1002.00
2022-12-31T09:06:23.123Z,1002.04
2022-12-31T09:07:22.925Z,1002.11
2022-12-31T09:08:23.183Z,1002.16
2022-12-31T09:09:23.466Z,1002.21
2022-12-31T09:10:23.850Z,1002.19
2022-12-31T09:11:25.105Z,1002.27
2022-12-31T09:12:24.418Z,1002.27
2022-12-31T09:13:24.698Z,1002.25
2022-12-31T09:14:25.048Z,1002.20
2022-12-31T09:15:25.202Z,1002.18
2022-12-31T09:16:25.512Z,1002.16
2022-12-31T09:17:28.706Z,1002.14
2022-12-31T09:18:32.845Z,1002.13
2022-12-31T09:19:28.502Z,1002.16
2022-12-31T09:20:36.378Z,1002.11
2022-12-31T09:21:29.097Z,1002.15
2022-12-31T09:22:27.283Z,1002.15
2022-12-31T09:23:27.604Z,1002.21
2022-12-31T09:24:27.989Z,1002.28
2022-12-31T09:25:28.073Z,1002.36
2022-12-31T09:26:28.696Z,1002.42
2022-12-31T09:27:28.805Z,1002.44
2022-12-31T09:28:29.485Z,1002.37
2022-12-31T09:29:29.322Z,1002.39
2022-12-31T09:30:29.603Z,1002.41
2022-12-31T09:31:30.056Z,1002.44
2022-12-31T09:32:30.194Z,1002.40
2022-12-31T09:33:30.694Z,1002.44
2022-12-31T09:34:30.910Z,1002.42
2022-12-31T09:35:31.236Z,1002.43
2022-12-31T09:36:31.342Z,1002.46
2022-12-31T09:37:31.645Z,1002.43
2022-12-31T09:38:32.051Z,1002.37
2022-12-31T09:39:32.199Z,1002.44
2022-12-31T09:40:32.482Z,1002.45
2022-12-31T09:41:33.048Z,1002.47
2022-12-31T09:42:33.049Z,1002.45
2022-12-31T09:43:33.300Z,1002.39
2022-12-31T09:44:33.596Z,1002.41
2022-12-31T09:45:34.213Z,1002.44
2022-12-31T09:46:34.151Z,1002.41
2022-12-31T09:47:34.448Z,1002.39
2022-12-31T09:48:34.947Z,1002.34
2022-12-31T09:49:35.149Z,1002.32
2022-12-31T09:50:35.571Z,1002.31
2022-12-31T09:51:35.874Z,1002.29
2022-12-31T09:52:38.312Z,1002.24
2022-12-31T09:53:47.935Z,1002.23
2022-12-31T09:54:36.613Z,1002.26
2022-12-31T09:55:36.996Z,1002.28
2022-12-31T09:56:37.779Z,1002.31
2022-12-31T09:57:38.914Z,1002.33
2022-12-31T09:58:37.650Z,1002.38
2022-12-31T09:59:38.101Z,1002.40
2022-12-31T10:00:38.151Z,1002.38
2022-12-31T10:01:38.649Z,1002.40
2022-12-31T10:02:38.790Z,1002.39
2022-12-31T10:03:39.021Z,1002.38
2022-12-31T10:04:39.773Z,1002.34
2022-12-31T10:05:39.932Z,1002.32
2022-12-31T10:06:39.825Z,1002.35
2022-12-31T10:07:40.085Z,1002.32
2022-12-31T10:08:40.391Z,1002.36
2022-12-31T10:09:40.691Z,1002.40
2022-12-31T10:10:40.975Z,1002.38
2022-12-31T10:11:41.271Z,1002.37
2022-12-31T10:12:41.545Z,1002.37
2022-12-31T10:13:41.872Z,1002.34
2022-12-31T10:14:47.172Z,1002.35
2022-12-31T10:15:43.481Z,1002.33
2022-12-31T10:16:42.893Z,1002.30
2022-12-31T10:17:43.029Z,1002.31
2022-12-31T10:18:43.353Z,1002.28
2022-12-31T10:19:43.675Z,1002.31
2022-12-31T10:20:45.572Z,1002.37
2022-12-31T10:21:44.262Z,1002.28
2022-12-31T10:22:44.520Z,1002.32
2022-12-31T10:23:44.822Z,1002.30
2022-12-31T10:24:45.082Z,1002.32
2022-12-31T10:25:45.384Z,1002.33
2022-12-31T10:26:51.345Z,1002.28
2022-12-31T10:27:46.990Z,1002.20
2022-12-31T10:28:46.333Z,1002.17
2022-12-31T10:29:46.599Z,1002.21
2022-12-31T10:30:46.925Z,1002.22
2022-12-31T10:31:47.578Z,1002.24
2022-12-31T10:32:47.559Z,1002.29
2022-12-31T10:33:48.586Z,1002.27
2022-12-31T10:34:48.169Z,1002.28
2022-12-31T10:35:48.433Z,1002.35
2022-12-31T10:36:48.705Z,1002.33
2022-12-31T10:37:48.974Z,1002.41
2022-12-31T10:38:49.259Z,1002.34
2022-12-31T10:39:49.535Z,1002.32
2022-12-31T10:40:49.831Z,1002.30
2022-12-31T10:41:50.109Z,1002.31
2022-12-31T10:42:50.396Z,1002.40
2022-12-31T10:43:50.654Z,1002.36
2022-12-31T10:44:50.957Z,1002.38
2022-12-31T10:45:51.238Z,1002.30
2022-12-31T10:46:52.528Z,1002.33
2022-12-31T10:47:51.850Z,1002.28
2022-12-31T10:48:52.898Z,1002.37
2022-12-31T10:49:52.457Z,1002.28
2022-12-31T10:50:52.720Z,1002.32
2022-12-31T10:51:53.021Z,1002.28
2022-12-31T10:52:53.296Z,1002.24
2022-12-31T10:53:53.682Z,1002.27
2022-12-31T10:54:53.800Z,1002.27
2022-12-31T10:55:54.075Z,1002.29
2022-12-31T10:56:54.340Z,1002.23
2022-12-31T10:57:58.720Z,1002.25
2022-12-31T10:58:55.867Z,1002.31
2022-12-31T10:59:55.193Z,1002.29
2022-12-31T11:00:55.463Z,1002.33
2022-12-31T11:01:55.795Z,1002.32
2022-12-31T11:02:56.035Z,1002.39
2022-12-31T11:03:56.264Z,1002.37
2022-12-31T11:04:56.550Z,1002.40
2022-12-31T11:05:56.823Z,1002.37
2022-12-31T11:06:57.084Z,1002.41
2022-12-31T11:07:57.457Z,1002.41
2022-12-31T11:08:57.711Z,1002.45
2022-12-31T11:09:58.125Z,1002.43
2022-12-31T11:10:58.211Z,1002.44
2022-12-31T11:11:58.517Z,1002.41
2022-12-31T11:12:58.835Z,1002.36
2022-12-31T11:13:59.149Z,1002.27
2022-12-31T11:14:59.435Z,1002.33
2022-12-31T11:16:00.667Z,1002.31
2022-12-31T11:17:00.014Z,1002.29
2022-12-31T11:18:00.298Z,1002.40
2022-12-31T11:19:00.590Z,1002.32
2022-12-31T11:20:00.909Z,1002.35
2022-12-31T11:21:01.255Z,1002.37
2022-12-31T11:22:01.515Z,1002.34
2022-12-31T11:23:01.842Z,1002.34
2022-12-31T11:24:02.474Z,1002.30
2022-12-31T11:25:02.411Z,1002.34
2022-12-31T11:26:02.678Z,1002.25
2022-12-31T11:27:02.974Z,1002.23
2022-12-31T11:28:03.352Z,1002.22
2022-12-31T11:29:03.611Z,1002.21
2022-12-31T11:30:03.796Z,1002.16
2022-12-31T11:31:04.130Z,1002.15
2022-12-31T11:32:04.403Z,1002.16
2022-12-31T11:33:04.686Z,1002.13
2022-12-31T11:34:04.974Z,1002.09
2022-12-31T11:35:05.264Z,1002.10
2022-12-31T11:38:27.316Z,1002.25
2022-12-31T11:39:31.105Z,1002.14
2022-12-31T11:40:27.747Z,1002.09
2022-12-31T11:41:28.176Z,1002.11
2022-12-31T11:42:28.019Z,1002.16
2022-12-31T11:43:28.512Z,1002.18
2022-12-31T11:44:28.543Z,1002.17
2022-12-31T11:45:28.981Z,1002.13
2022-12-31T11:46:29.852Z,1002.06
2022-12-31T11:47:30.148Z,1002.05
2022-12-31T11:48:31.256Z,1002.04
2022-12-31T11:49:30.145Z,1002.08
2022-12-31T11:50:30.326Z,1002.06
2022-12-31T11:51:30.661Z,1002.08
2022-12-31T11:52:30.845Z,1002.10
2022-12-31T11:53:31.117Z,1002.12
2022-12-31T11:54:31.387Z,1002.14
2022-12-31T11:55:31.822Z,1002.13
2022-12-31T11:56:32.186Z,1002.15
2022-12-31T11:57:32.214Z,1002.17
2022-12-31T11:58:32.511Z,1002.11
2022-12-31T11:59:32.788Z,1002.06
2022-12-31T12:00:33.049Z,1002.03
2022-12-31T12:01:33.353Z,1001.98
2022-12-31T12:02:33.702Z,1002.00
2022-12-31T12:03:33.900Z,1002.05
2022-12-31T12:04:34.208Z,1001.98
2022-12-31T12:05:34.480Z,1001.98
2022-12-31T12:06:34.789Z,1001.97
2022-12-31T12:07:35.060Z,1002.00
2022-12-31T12:08:35.367Z,1001.92
2022-12-31T12:09:35.671Z,1001.93
2022-12-31T12:10:36.923Z,1002.00
2022-12-31T12:11:36.268Z,1001.99